createdAt,value
2022-11-04T00:01:45.327Z,-23484.97
2022-11-04T00:03:49.382Z,-23484.97
2022-11-04T00:05:51.964Z,-23484.34
2022-11-04T00:08:12.201Z,-23485.28
2022-11-04T00:10:15.001Z,-23484.66
2022-11-04T00:12:25.629Z,-23485.13
2022-11-04T00:14:30.270Z,-23486.41
2022-11-04T00:16:50.216Z,-23484.34
2022-11-04T00:18:54.194Z,-23483.22
2022-11-04T00:21:15.441Z,-23483.53
2022-11-04T00:23:35.809Z,-23483.06
2022-11-04T00:25:56.185Z,-23482.59
2022-11-04T00:28:24.304Z,-23481.97
2022-11-04T00:30:26.942Z,-23483.38
2022-11-04T00:32:47.299Z,-23483.06
2022-11-04T00:34:51.277Z,-23483.38
2022-11-04T00:36:53.867Z,-23482.44
2022-11-04T00:38:56.441Z,-23480.53
2022-11-04T00:40:59.041Z,-23482.91
2022-11-04T00:43:01.732Z,-23480.22
2022-11-04T00:45:04.797Z,-23479.75
2022-11-04T00:47:07.492Z,-23479.25
2022-11-04T00:49:10.094Z,-23479.59
2022-11-04T00:53:21.517Z,-23479.44
2022-11-04T00:55:24.133Z,-23478.31
2022-11-04T00:57:26.784Z,-23480.06
2022-11-04T00:59:29.405Z,-23478.63
2022-11-04T01:01:32.187Z,-23479.59
2022-11-04T01:03:34.809Z,-23481.31
2022-11-04T01:05:38.693Z,-23479.59
2022-11-04T01:07:43.794Z,-23480.22
2022-11-04T01:09:46.653Z,-23479.91
2022-11-04T01:11:49.400Z,-23478.63
2022-11-04T01:13:52.352Z,-23477.69
2022-11-04T01:15:54.985Z,-23478.31
2022-11-04T01:17:57.579Z,-23481.16
2022-11-04T01:20:00.203Z,-23478.31
2022-11-04T01:22:02.869Z,-23479.09
2022-11-04T01:24:07.289Z,-23478.47
2022-11-04T01:26:11.543Z,-23479.91
2022-11-04T01:28:14.166Z,-23479.59
2022-11-04T01:30:16.839Z,-23479.91
2022-11-04T01:32:19.428Z,-23480.53
2022-11-04T01:34:22.052Z,-23478.47
2022-11-04T01:36:25.642Z,-23480.84
2022-11-04T01:38:28.278Z,-23476.72
2022-11-04T01:40:37.682Z,-23475.16
2022-11-04T01:42:40.280Z,-23478.63
2022-11-04T01:44:51.816Z,-23473.09
2022-11-04T01:46:55.436Z,-23475.94
2022-11-04T01:49:04.734Z,-23477.38
2022-11-04T01:51:08.207Z,-23472.75
2022-11-04T01:53:14.196Z,-23473.56
2022-11-04T01:55:21.046Z,-23472.91
2022-11-04T01:57:31.410Z,-23473.72
2022-11-04T01:59:36.874Z,-23475.47
2022-11-04T02:01:39.737Z,-23473.88
2022-11-04T02:03:49.959Z,-23475.47
2022-11-04T02:05:53.485Z,-23475.94
2022-11-04T02:07:58.857Z,-23476.41
2022-11-04T02:10:01.679Z,-23474.81
2022-11-04T02:12:37.101Z,-23474.81
2022-11-04T02:14:42.425Z,-23471.50
2022-11-04T02:16:49.348Z,-23471.50
2022-11-04T02:19:02.686Z,-23470.88
2022-11-04T02:21:25.489Z,-23472.91
2022-11-04T02:24:00.095Z,-23471.34
2022-11-04T02:26:25.835Z,-23467.22
2022-11-04T02:28:52.550Z,-23466.56
2022-11-04T02:31:04.192Z,-23468.81
2022-11-04T02:33:18.780Z,-23467.53
2022-11-04T02:35:27.183Z,-23466.09
2022-11-04T02:37:40.961Z,-23467.84
2022-11-04T02:39:52.580Z,-23464.53
2022-11-04T02:41:59.689Z,-23464.69
2022-11-04T02:44:14.686Z,-23465.63
2022-11-04T02:46:23.180Z,-23465.16
2022-11-04T02:48:33.140Z,-23465.94
2022-11-04T02:50:44.419Z,-23464.69
2022-11-04T02:52:56.122Z,-23465.31
2022-11-04T02:55:03.966Z,-23464.69
2022-11-04T02:57:10.943Z,-23465.31
2022-11-04T02:59:19.165Z,-23464.03
2022-11-04T03:01:27.146Z,-23464.38
2022-11-04T03:03:36.606Z,-23463.72
2022-11-04T03:05:44.039Z,-23461.97
2022-11-04T03:07:49.027Z,-23461.19
2022-11-04T03:09:56.742Z,-23459.44
2022-11-04T03:12:05.385Z,-23460.88
2022-11-04T03:14:13.471Z,-23461.19
2022-11-04T03:16:20.530Z,-23459.59
2022-11-04T03:18:34.369Z,-23459.44
2022-11-04T03:20:39.852Z,-23456.13
2022-11-04T03:22:42.524Z,-23453.91
2022-11-04T03:24:46.881Z,-23453.56
2022-11-04T03:26:56.131Z,-23453.72
2022-11-04T03:29:10.251Z,-23453.25
2022-11-04T03:31:21.607Z,-23452.47
2022-11-04T03:33:34.827Z,-23450.09
2022-11-04T03:35:37.447Z,-23450.41
2022-11-04T03:37:40.171Z,-23451.66
2022-11-04T03:39:42.973Z,-23450.72
2022-11-04T03:41:50.333Z,-23449.59
2022-11-04T03:43:52.961Z,-23447.53
2022-11-04T03:45:56.575Z,-23446.59
2022-11-04T03:47:59.375Z,-23445.66
2022-11-04T03:50:13.756Z,-23445.31
2022-11-04T03:52:18.650Z,-23446.13
2022-11-04T03:54:21.845Z,-23451.66
2022-11-04T03:56:42.818Z,-23445.16
2022-11-04T03:58:59.435Z,-23444.06
2022-11-04T04:01:13.193Z,-23442.16
2022-11-04T04:03:21.060Z,-23445.16
2022-11-04T04:05:29.787Z,-23443.41
2022-11-04T04:07:36.418Z,-23441.53
2022-11-04T04:09:43.381Z,-23440.41
2022-11-04T04:11:53.577Z,-23444.69
2022-11-04T04:14:02.880Z,-23440.09
2022-11-04T04:16:10.935Z,-23437.06
2022-11-04T04:18:15.970Z,-23439.28
2022-11-04T04:20:21.438Z,-23436.44
2022-11-04T04:22:29.210Z,-23436.91
2022-11-04T04:24:54.515Z,-23438.34
2022-11-04T04:27:15.765Z,-23434.84
2022-11-04T04:29:19.385Z,-23437.53
2022-11-04T04:31:36.586Z,-23437.41
2022-11-04T04:33:39.826Z,-23433.75
2022-11-04T04:35:46.557Z,-23432.78
2022-11-04T04:37:51.253Z,-23430.88
2022-11-04T04:40:16.130Z,-23430.72
2022-11-04T04:42:39.274Z,-23432.63
2022-11-04T04:45:02.173Z,-23431.34
2022-11-04T04:47:06.421Z,-23429.78
2022-11-04T04:49:10.284Z,-23431.03
2022-11-04T04:51:12.889Z,-23430.09
2022-11-04T04:53:16.893Z,-23432.94
2022-11-04T04:55:20.156Z,-23431.03
2022-11-04T04:57:23.007Z,-23427.84
2022-11-04T04:59:25.621Z,-23425.31
2022-11-04T05:01:28.539Z,-23428.66
2022-11-04T05:03:31.216Z,-23427.22
2022-11-04T05:05:33.842Z,-23428.66
2022-11-04T05:07:36.454Z,-23429.94
2022-11-04T05:09:40.542Z,-23431.34
2022-11-04T05:11:43.162Z,-23428.34
2022-11-04T05:13:45.753Z,-23429.28
2022-11-04T05:15:48.395Z,-23428.50
2022-11-04T05:17:54.992Z,-23427.53
2022-11-04T05:19:57.783Z,-23427.72
2022-11-04T05:22:00.403Z,-23427.22
2022-11-04T05:24:03.026Z,-23426.75
2022-11-04T05:26:07.255Z,-23424.22
2022-11-04T05:28:10.789Z,-23431.19
2022-11-04T05:30:13.544Z,-23429.44
2022-11-04T05:32:16.207Z,-23431.19
2022-11-04T05:34:18.800Z,-23424.69
2022-11-04T05:36:21.399Z,-23421.34
2022-11-04T05:38:24.018Z,-23423.72
2022-11-04T05:40:26.750Z,-23422.16
2022-11-04T05:42:32.190Z,-23424.69
2022-11-04T05:44:34.864Z,-23419.94
2022-11-04T05:46:37.525Z,-23420.41
2022-11-04T05:48:40.666Z,-23420.41
2022-11-04T05:50:43.520Z,-23419.94
2022-11-04T05:52:46.074Z,-23418.03
2022-11-04T05:54:48.660Z,-23418.03
2022-11-04T05:56:51.272Z,-23418.34
2022-11-04T05:58:55.289Z,-23419.28
2022-11-04T06:01:12.471Z,-23418.19
2022-11-04T06:03:16.374Z,-23413.41
2022-11-04T06:05:19.319Z,-23414.69
2022-11-04T06:07:21.920Z,-23413.88
2022-11-04T06:09:38.791Z,-23412.94
2022-11-04T06:11:41.498Z,-23413.72
2022-11-04T06:13:44.091Z,-23414.22
2022-11-04T06:15:48.063Z,-23415.16
2022-11-04T06:17:50.725Z,-23413.09
2022-11-04T06:19:53.400Z,-23413.56
2022-11-04T06:21:56.012Z,-23410.41
2022-11-04T06:24:00.500Z,-23410.25
2022-11-04T06:26:03.251Z,-23414.03
2022-11-04T06:28:06.071Z,-23417.84
2022-11-04T06:30:10.416Z,-23419.44
2022-11-04T06:32:17.346Z,-23421.66
2022-11-04T06:34:20.016Z,-23417.06
2022-11-04T06:36:22.601Z,-23418.34
2022-11-04T06:38:25.212Z,-23420.25
2022-11-04T06:40:27.780Z,-23421.19
2022-11-04T06:42:30.385Z,-23423.72
2022-11-04T06:44:34.334Z,-23422.78
2022-11-04T06:46:39.309Z,-23415.31
2022-11-04T06:48:43.272Z,-23410.88
2022-11-04T06:50:45.885Z,-23414.53
2022-11-04T06:52:48.519Z,-23410.56
2022-11-04T06:54:51.144Z,-23411.03
2022-11-04T06:56:53.727Z,-23411.97
2022-11-04T06:58:57.054Z,-23413.25
2022-11-04T07:01:00.016Z,-23413.88
2022-11-04T07:03:02.753Z,-23411.81
2022-11-04T07:05:08.136Z,-23415.00
2022-11-04T07:07:10.853Z,-23416.09
2022-11-04T07:09:15.125Z,-23414.84
2022-11-04T07:11:18.762Z,-23414.03
2022-11-04T07:13:21.408Z,-23415.97
2022-11-04T07:15:27.476Z,-23415.47
2022-11-04T07:17:30.411Z,-23415.97
2022-11-04T07:19:34.101Z,-23417.84
2022-11-04T07:21:38.068Z,-23415.31
2022-11-04T07:23:40.707Z,-23414.53
2022-11-04T07:25:43.692Z,-23413.09
2022-11-04T07:27:46.282Z,-23414.53
2022-11-04T07:29:48.946Z,-23409.13
2022-11-04T07:31:51.530Z,-23411.34
2022-11-04T07:33:54.980Z,-23411.97
2022-11-04T07:35:58.541Z,-23410.06
2022-11-04T07:38:03.965Z,-23413.41
2022-11-04T07:40:07.685Z,-23413.25
2022-11-04T07:42:10.363Z,-23413.25
2022-11-04T07:44:13.744Z,-23414.84
2022-11-04T07:46:16.350Z,-23414.84
2022-11-04T07:48:18.932Z,-23414.84
2022-11-04T07:50:21.800Z,-23416.59
2022-11-04T07:52:24.989Z,-23418.34
2022-11-04T07:54:29.263Z,-23422.31
2022-11-04T07:56:31.918Z,-23425.31
2022-11-04T07:58:35.154Z,-23429.78
2022-11-04T08:00:37.804Z,-23425.47
2022-11-04T08:02:40.631Z,-23428.50
2022-11-04T08:04:43.381Z,-23427.38
2022-11-04T08:06:45.955Z,-23425.31
2022-11-04T08:08:49.032Z,-23427.53
2022-11-04T08:10:57.457Z,-23429.13
2022-11-04T08:13:00.100Z,-23430.72
2022-11-04T08:15:02.688Z,-23431.19
2022-11-04T08:17:05.399Z,-23433.59
2022-11-04T08:19:08.046Z,-23436.44
2022-11-04T08:21:11.034Z,-23445.31
2022-11-04T08:23:13.684Z,-23446.91
2022-11-04T08:25:16.838Z,-23451.84
2022-11-04T08:27:20.974Z,-23452.16
2022-11-04T08:29:23.710Z,-23463.72
2022-11-04T08:31:28.666Z,-23467.06
2022-11-04T08:33:33.475Z,-23469.75
2022-11-04T08:35:40.909Z,-23468.63
2022-11-04T08:37:43.850Z,-23472.13
2022-11-04T08:39:46.724Z,-23479.25
2022-11-04T08:41:52.182Z,-23475.47
2022-11-04T08:44:00.743Z,-23465.94
2022-11-04T08:46:06.842Z,-23477.38
2022-11-04T08:48:09.771Z,-23474.03
2022-11-04T08:50:12.503Z,-23476.09
2022-11-04T08:52:15.185Z,-23484.34
2022-11-04T08:54:17.925Z,-23484.19
2022-11-04T08:56:22.475Z,-23468.50
2022-11-04T08:58:25.826Z,-23465.78
2022-11-04T09:00:29.854Z,-23460.88
2022-11-04T09:02:32.461Z,-23461.50
2022-11-04T09:04:35.844Z,-23459.13
2022-11-04T09:06:41.312Z,-23456.44
2022-11-04T09:08:44.047Z,-23458.19
2022-11-04T09:10:48.914Z,-23455.31
2022-11-04T09:12:51.514Z,-23458.19
2022-11-04T09:14:54.336Z,-23459.59
2022-11-04T09:16:58.340Z,-23454.53
2022-11-04T09:19:01.035Z,-23465.31
2022-11-04T09:21:05.707Z,-23469.44
2022-11-04T09:23:08.871Z,-23461.34
2022-11-04T09:25:11.768Z,-23458.19
2022-11-04T09:27:14.735Z,-23463.56
2022-11-04T09:29:17.573Z,-23462.13
2022-11-04T09:31:21.345Z,-23468.16
2022-11-04T09:33:25.312Z,-23462.13
2022-11-04T09:35:28.528Z,-23468.16
2022-11-04T09:37:31.430Z,-23471.66
2022-11-04T09:39:34.086Z,-23480.22
2022-11-04T09:42:01.435Z,-23486.25
2022-11-04T09:44:15.585Z,-23482.59
2022-11-04T09:46:18.699Z,-23473.41
2022-11-04T09:48:29.916Z,-23477.38
2022-11-04T09:50:38.100Z,-23491.31
2022-11-04T09:52:45.004Z,-23482.44
2022-11-04T09:54:55.075Z,-23488.16
2022-11-04T09:57:02.615Z,-23486.88
2022-11-04T09:59:06.881Z,-23489.91
2022-11-04T10:01:21.098Z,-23491.31
2022-11-04T10:03:38.782Z,-23490.38
2022-11-04T10:05:54.393Z,-23501.13
2022-11-04T10:08:24.052Z,-23511.13
2022-11-04T10:10:33.546Z,-23514.28
2022-11-04T10:12:54.388Z,-23527.28
2022-11-04T10:15:12.262Z,-23520.47
2022-11-04T10:17:28.591Z,-23525.22
2022-11-04T10:19:45.216Z,-23510.00
2022-11-04T10:21:58.591Z,-23527.28
2022-11-04T10:24:14.342Z,-23511.59
2022-11-04T10:26:19.316Z,-23513.81
2022-11-04T10:28:36.001Z,-23513.34
2022-11-04T10:30:40.888Z,-23516.81
2022-11-04T10:32:54.035Z,-23519.81
2022-11-04T10:35:03.153Z,-23529.81
2022-11-04T10:37:10.249Z,-23519.19
2022-11-04T10:39:21.883Z,-23520.31
2022-11-04T10:41:34.364Z,-23507.31
2022-11-04T10:43:38.493Z,-23509.06
2022-11-04T10:45:45.850Z,-23514.75
2022-11-04T10:47:55.402Z,-23525.84
2022-11-04T10:50:33.607Z,-23533.75
2022-11-04T10:52:37.759Z,-23534.06
2022-11-04T10:54:42.194Z,-23527.44
2022-11-04T10:56:50.428Z,-23543.25
2022-11-04T10:58:55.577Z,-23542.63
2022-11-04T11:00:59.208Z,-23529.97
2022-11-04T11:03:01.918Z,-23524.25
2022-11-04T11:05:21.744Z,-23525.38
2022-11-04T11:07:37.866Z,-23523.00
2022-11-04T11:09:54.173Z,-23528.22
2022-11-04T11:12:00.895Z,-23519.50
2022-11-04T11:14:03.577Z,-23512.22
2022-11-04T11:16:10.169Z,-23518.56
2022-11-04T11:18:16.620Z,-23509.38
2022-11-04T11:20:23.444Z,-23511.91
2022-11-04T11:22:37.459Z,-23507.47
2022-11-04T11:24:40.081Z,-23506.22
2022-11-04T11:26:48.279Z,-23509.38
2022-11-04T11:28:59.065Z,-23510.31
2022-11-04T11:31:05.659Z,-23517.13
2022-11-04T11:33:18.841Z,-23517.13
2022-11-04T11:35:26.668Z,-23510.66
2022-11-04T11:37:31.287Z,-23517.94
2022-11-04T11:39:36.294Z,-23524.56
2022-11-04T11:41:53.302Z,-23518.25
2022-11-04T11:43:57.941Z,-23531.53
2022-11-04T11:46:01.326Z,-23523.94
2022-11-04T11:48:04.099Z,-23522.03
2022-11-04T11:50:15.547Z,-23511.28
2022-11-04T11:52:32.521Z,-23513.66
2022-11-04T11:54:39.052Z,-23530.44
2022-11-04T11:57:11.929Z,-23526.31
2022-11-04T12:01:45.756Z,-23528.69
2022-11-04T12:06:28.716Z,-23539.78
2022-11-04T12:11:20.967Z,-23549.44
2022-11-04T12:13:30.835Z,-23553.38
2022-11-04T12:15:45.050Z,-23549.75
2022-11-04T12:18:03.428Z,-23532.50
2022-11-04T12:20:23.767Z,-23541.34
2022-11-04T12:22:35.651Z,-23523.47
2022-11-04T12:24:53.162Z,-23525.84
2022-11-04T12:27:06.284Z,-23536.44
2022-11-04T12:29:30.261Z,-23532.66
2022-11-04T12:31:43.822Z,-23532.50
2022-11-04T12:33:56.626Z,-23521.56
2022-11-04T12:36:22.908Z,-23524.41
2022-11-04T12:38:43.170Z,-23520.00
2022-11-04T12:41:27.761Z,-23521.88
2022-11-04T12:43:26.753Z,-23524.25
2022-11-04T12:45:43.778Z,-23516.97
2022-11-04T12:47:47.811Z,-23523.94
2022-11-04T12:50:17.287Z,-23519.03
2022-11-04T12:52:37.286Z,-23519.81
2022-11-04T12:55:06.958Z,-23516.66
2022-11-04T12:57:21.607Z,-23521.41
2022-11-04T12:59:39.175Z,-23518.56
2022-11-04T13:01:49.685Z,-23520.00
2022-11-04T13:03:56.250Z,-23524.56
2022-11-04T13:06:05.358Z,-23525.38
2022-11-04T13:08:16.976Z,-23525.53
2022-11-04T13:10:23.595Z,-23530.28
2022-11-04T13:12:31.606Z,-23530.44
2022-11-04T13:14:40.539Z,-23535.81
2022-11-04T13:16:47.351Z,-23539.78
2022-11-04T13:18:50.944Z,-23545.16
2022-11-04T13:21:02.744Z,-23547.53
2022-11-04T13:23:09.914Z,-23542.00
2022-11-04T13:25:17.823Z,-23540.72
2022-11-04T13:27:22.931Z,-23541.03
2022-11-04T13:29:27.854Z,-23542.63
2022-11-04T13:31:38.023Z,-23548.16
2022-11-04T13:33:50.379Z,-23545.16
2022-11-04T13:35:58.998Z,-23543.09
2022-11-04T13:38:08.676Z,-23541.69
2022-11-04T13:40:17.469Z,-23544.84
2022-11-04T13:42:50.333Z,-23548.31
2022-11-04T13:44:57.913Z,-23540.72
2022-11-04T13:47:05.128Z,-23545.78
2022-11-04T13:49:20.621Z,-23539.94
2022-11-04T13:51:23.276Z,-23548.00
2022-11-04T13:53:42.029Z,-23537.25
2022-11-04T13:55:50.966Z,-23531.84
2022-11-04T13:57:56.768Z,-23544.84
2022-11-04T14:00:25.412Z,-23546.09
2022-11-04T14:02:44.745Z,-23535.03
2022-11-04T14:04:48.300Z,-23539.78
2022-11-04T14:06:54.622Z,-23518.56
2022-11-04T14:09:36.629Z,-23507.63
2022-11-04T14:12:35.573Z,-23512.72
2022-11-04T14:14:38.849Z,-23512.38
2022-11-04T14:16:44.802Z,-23501.63
2022-11-04T14:18:49.306Z,-23492.09
2022-11-04T14:21:03.751Z,-23489.56
2022-11-04T14:23:08.743Z,-23484.03
2022-11-04T14:25:25.806Z,-23472.59
2022-11-04T14:27:36.098Z,-23465.31
2022-11-04T14:29:41.056Z,-23459.44
2022-11-04T14:31:51.307Z,-23460.56
2022-11-04T14:33:55.441Z,-23465.16
2022-11-04T14:36:14.307Z,-23462.94
2022-11-04T14:38:26.728Z,-23461.34
2022-11-04T14:40:47.269Z,-23457.06
2022-11-04T14:42:53.173Z,-23459.91
2022-11-04T14:44:55.842Z,-23461.19
2022-11-04T14:47:03.204Z,-23467.38
2022-11-04T14:49:06.341Z,-23468.50
2022-11-04T14:51:24.989Z,-23471.03
2022-11-04T14:53:32.647Z,-23472.44
2022-11-04T14:55:36.731Z,-23473.88
2022-11-04T14:57:40.724Z,-23473.56
2022-11-04T14:59:43.479Z,-23478.31
2022-11-04T15:01:46.362Z,-23474.34
2022-11-04T15:04:11.693Z,-23462.63
2022-11-04T15:06:14.565Z,-23458.66
2022-11-04T15:08:28.272Z,-23460.72
2022-11-04T15:10:30.873Z,-23464.84
2022-11-04T15:12:52.113Z,-23465.31
2022-11-04T15:14:55.014Z,-23466.91
2022-11-04T15:17:00.019Z,-23465.31
2022-11-04T15:19:04.070Z,-23465.00
2022-11-04T15:21:07.999Z,-23468.97
2022-11-04T15:23:17.504Z,-23468.81
2022-11-04T15:25:20.584Z,-23471.50
2022-11-04T15:27:28.915Z,-23467.53
2022-11-04T15:29:31.596Z,-23467.22
2022-11-04T15:31:35.487Z,-23466.56
2022-11-04T15:33:43.264Z,-23468.00
2022-11-04T15:35:47.366Z,-23467.84
2022-11-04T15:37:52.133Z,-23472.59
2022-11-04T15:39:58.635Z,-23472.91
2022-11-04T15:42:22.030Z,-23469.28
2022-11-04T15:44:26.788Z,-23465.78
2022-11-04T15:46:30.273Z,-23469.75
2022-11-04T15:48:36.520Z,-23468.97
2022-11-04T15:50:39.521Z,-23469.13
2022-11-04T15:52:50.014Z,-23466.25
2022-11-04T15:54:54.417Z,-23465.00
2022-11-04T15:57:01.020Z,-23464.69
2022-11-04T15:59:09.397Z,-23463.41
2022-11-04T16:01:15.626Z,-23465.94
2022-11-04T16:03:19.997Z,-23465.16
2022-11-04T16:05:26.567Z,-23462.63
2022-11-04T16:07:34.979Z,-23460.72
2022-11-04T16:09:49.077Z,-23450.56
2022-11-04T16:12:06.011Z,-23451.66
2022-11-04T16:14:26.497Z,-23456.75
2022-11-04T16:16:29.334Z,-23456.13
2022-11-04T16:18:37.001Z,-23456.75
2022-11-04T16:20:39.625Z,-23455.78
2022-11-04T16:22:44.096Z,-23455.78
2022-11-04T16:24:50.608Z,-23456.44
2022-11-04T16:26:56.817Z,-23452.94
2022-11-04T16:29:01.821Z,-23453.91
2022-11-04T16:31:08.575Z,-23454.22
2022-11-04T16:33:12.133Z,-23454.84
2022-11-04T16:35:18.223Z,-23452.78
2022-11-04T16:37:20.811Z,-23455.97
2022-11-04T16:39:23.414Z,-23451.66
2022-11-04T16:41:29.253Z,-23454.84
2022-11-04T16:43:32.900Z,-23454.53
2022-11-04T16:45:37.929Z,-23455.00
2022-11-04T16:47:41.281Z,-23455.16
2022-11-04T16:49:43.870Z,-23450.09
2022-11-04T16:51:46.998Z,-23452.94
2022-11-04T16:53:51.581Z,-23456.44
2022-11-04T16:55:56.630Z,-23465.16
2022-11-04T16:58:04.596Z,-23451.34
2022-11-04T17:00:08.568Z,-23444.69
2022-11-04T17:02:24.462Z,-23449.44
2022-11-04T17:04:27.185Z,-23452.16
2022-11-04T17:06:30.159Z,-23453.91
2022-11-04T17:08:33.578Z,-23449.44
2022-11-04T17:10:36.487Z,-23452.00
2022-11-04T17:12:39.145Z,-23446.28
2022-11-04T17:14:43.177Z,-23447.88
2022-11-04T17:16:45.910Z,-23451.03
2022-11-04T17:18:48.599Z,-23450.09
2022-11-04T17:20:54.033Z,-23451.66
2022-11-04T17:22:56.722Z,-23443.41
2022-11-04T17:24:59.446Z,-23439.28
2022-11-04T17:27:02.071Z,-23438.34
2022-11-04T17:29:05.261Z,-23437.06
2022-11-04T17:31:09.292Z,-23437.72
2022-11-04T17:33:14.328Z,-23439.47
2022-11-04T17:35:18.309Z,-23439.28
2022-11-04T17:37:20.967Z,-23438.97
2022-11-04T17:39:23.632Z,-23442.78
2022-11-04T17:41:43.771Z,-23443.91
2022-11-04T17:44:01.626Z,-23442.78
2022-11-04T17:46:18.152Z,-23445.00
2022-11-04T17:48:22.126Z,-23445.97
2022-11-04T17:50:24.851Z,-23443.91
2022-11-04T17:52:27.511Z,-23446.59
2022-11-04T17:54:31.093Z,-23442.78
2022-11-04T17:56:34.061Z,-23441.34
2022-11-04T17:58:37.018Z,-23439.78
2022-11-04T18:00:39.645Z,-23439.13
2022-11-04T18:02:43.662Z,-23438.97
2022-11-04T18:04:47.810Z,-23440.88
2022-11-04T18:06:51.386Z,-23441.53
2022-11-04T18:08:54.513Z,-23439.59
2022-11-04T18:10:58.791Z,-23440.41
2022-11-04T18:13:00.432Z,-23443.09
2022-11-04T18:15:03.185Z,-23441.53
2022-11-04T18:17:05.857Z,-23443.09
2022-11-04T18:19:08.517Z,-23443.75
2022-11-04T18:21:12.520Z,-23442.47
2022-11-04T18:23:15.162Z,-23443.91
2022-11-04T18:25:18.519Z,-23445.31
2022-11-04T18:27:21.139Z,-23442.47
2022-11-04T18:29:24.031Z,-23446.91
2022-11-04T18:31:29.576Z,-23438.50
2022-11-04T18:33:32.206Z,-23434.69
2022-11-04T18:35:35.459Z,-23440.25
2022-11-04T18:37:45.734Z,-23440.56
2022-11-04T18:39:49.812Z,-23440.88
2022-11-04T18:41:52.429Z,-23443.41
2022-11-04T18:43:55.131Z,-23439.59
2022-11-04T18:45:57.829Z,-23442.47
2022-11-04T18:48:00.429Z,-23438.50
2022-11-04T18:50:03.048Z,-23436.75
2022-11-04T18:52:05.881Z,-23437.06
2022-11-04T18:54:11.550Z,-23438.66
2022-11-04T18:56:16.194Z,-23438.34
2022-11-04T18:58:18.777Z,-23435.97
2022-11-04T19:00:21.504Z,-23436.44
2022-11-04T19:02:24.419Z,-23435.47
2022-11-04T19:04:27.279Z,-23436.44
2022-11-04T19:06:32.263Z,-23432.63
2022-11-04T19:08:35.143Z,-23433.28
2022-11-04T19:10:57.912Z,-23432.63
2022-11-04T19:13:20.737Z,-23430.09
2022-11-04T19:15:23.359Z,-23433.75
2022-11-04T19:17:26.258Z,-23432.78
2022-11-04T19:19:28.871Z,-23434.06
2022-11-04T19:21:31.879Z,-23436.13
2022-11-04T19:23:34.927Z,-23434.53
2022-11-04T19:25:41.225Z,-23435.16
2022-11-04T19:27:43.829Z,-23433.91
2022-11-04T19:29:46.500Z,-23431.34
2022-11-04T19:31:49.184Z,-23435.81
2022-11-04T19:33:52.495Z,-23435.47
2022-11-04T19:35:55.378Z,-23432.78
2022-11-04T19:37:59.980Z,-23434.22
2022-11-04T19:40:04.643Z,-23432.94
2022-11-04T19:42:26.673Z,-23434.06
2022-11-04T19:44:29.583Z,-23436.13
2022-11-04T19:46:32.511Z,-23436.91
2022-11-04T19:48:35.674Z,-23437.06
2022-11-04T19:50:43.369Z,-23437.72
2022-11-04T19:52:46.013Z,-23435.47
2022-11-04T19:54:48.622Z,-23433.59
2022-11-04T19:56:51.271Z,-23434.84
2022-11-04T19:58:55.499Z,-23435.34
2022-11-04T20:00:58.284Z,-23432.78
2022-11-04T20:03:00.939Z,-23435.66
2022-11-04T20:05:03.758Z,-23438.34
2022-11-04T20:07:06.446Z,-23434.84
2022-11-04T20:09:10.919Z,-23434.84
2022-11-04T20:11:14.883Z,-23435.81
2022-11-04T20:13:38.197Z,-23435.81
2022-11-04T20:15:42.240Z,-23438.97
2022-11-04T20:17:44.871Z,-23435.81
2022-11-04T20:19:47.496Z,-23436.13
2022-11-04T20:21:50.353Z,-23433.75
2022-11-04T20:23:56.271Z,-23432.94
2022-11-04T20:26:06.766Z,-23433.91
2022-11-04T20:28:09.847Z,-23435.47
2022-11-04T20:30:13.451Z,-23433.91
2022-11-04T20:32:17.419Z,-23436.44
2022-11-04T20:34:20.061Z,-23438.97
2022-11-04T20:36:25.258Z,-23453.25
2022-11-04T20:38:28.507Z,-23438.50
2022-11-04T20:40:31.185Z,-23434.69
2022-11-04T20:42:34.388Z,-23436.44
2022-11-04T20:44:36.962Z,-23433.41
2022-11-04T20:46:39.957Z,-23432.16
2022-11-04T20:48:44.098Z,-23435.66
2022-11-04T20:50:46.722Z,-23434.22
2022-11-04T20:52:49.307Z,-23431.34
2022-11-04T20:54:51.943Z,-23430.72
2022-11-04T20:56:54.597Z,-23428.50
2022-11-04T20:58:59.429Z,-23427.22
2022-11-04T21:01:03.218Z,-23425.63
2022-11-04T21:03:06.018Z,-23426.13
2022-11-04T21:05:10.616Z,-23425.16
2022-11-04T21:07:13.268Z,-23425.78
2022-11-04T21:09:18.343Z,-23423.41
2022-11-04T21:11:21.676Z,-23424.69
2022-11-04T21:13:24.303Z,-23423.56
2022-11-04T21:15:41.962Z,-23423.41
2022-11-04T21:17:44.589Z,-23423.56
2022-11-04T21:19:47.216Z,-23422.16
2022-11-04T21:21:51.250Z,-23422.31
2022-11-04T21:23:57.670Z,-23422.94
2022-11-04T21:26:05.740Z,-23425.31
2022-11-04T21:28:08.658Z,-23430.41
2022-11-04T21:30:13.178Z,-23426.28
2022-11-04T21:32:16.242Z,-23425.63
2022-11-04T21:34:18.984Z,-23425.47
2022-11-04T21:36:22.379Z,-23425.16
2022-11-04T21:38:26.350Z,-23426.28
2022-11-04T21:40:29.027Z,-23424.53
2022-11-04T21:42:31.680Z,-23421.34
2022-11-04T21:44:34.307Z,-23423.72
2022-11-04T21:46:37.540Z,-23421.81
2022-11-04T21:48:42.535Z,-23423.72
2022-11-04T21:50:45.447Z,-23422.47
2022-11-04T21:52:48.153Z,-23426.28
2022-11-04T21:54:52.178Z,-23427.72
2022-11-04T21:56:54.834Z,-23426.28
2022-11-04T21:58:57.743Z,-23424.84
2022-11-04T22:01:01.062Z,-23424.53
2022-11-04T22:03:03.777Z,-23425.00
2022-11-04T22:05:07.341Z,-23423.41
2022-11-04T22:07:09.985Z,-23423.72
2022-11-04T22:09:13.122Z,-23422.78
2022-11-04T22:11:19.429Z,-23420.56
2022-11-04T22:13:22.724Z,-23421.50
2022-11-04T22:15:42.769Z,-23422.47
2022-11-04T22:17:45.377Z,-23425.97
2022-11-04T22:19:47.960Z,-23421.81
2022-11-04T22:21:50.590Z,-23421.19
2022-11-04T22:23:53.870Z,-23420.56
2022-11-04T22:26:00.694Z,-23419.94
2022-11-04T22:28:04.864Z,-23423.72
2022-11-04T22:30:09.127Z,-23422.47
2022-11-04T22:32:11.730Z,-23421.50
2022-11-04T22:34:14.457Z,-23421.81
2022-11-04T22:36:17.443Z,-23420.41
2022-11-04T22:38:20.071Z,-23421.50
2022-11-04T22:40:22.658Z,-23424.53
2022-11-04T22:42:25.302Z,-23427.06
2022-11-04T22:44:29.259Z,-23425.47
2022-11-04T22:46:35.064Z,-23429.44
2022-11-04T22:48:38.031Z,-23429.78
2022-11-04T22:50:40.663Z,-23434.22
2022-11-04T22:52:43.233Z,-23431.53
2022-11-04T22:54:45.870Z,-23426.59
2022-11-04T22:56:48.494Z,-23427.53
2022-11-04T22:58:52.611Z,-23424.06
2022-11-04T23:00:58.975Z,-23423.25
2022-11-04T23:03:01.887Z,-23423.25
2022-11-04T23:05:05.063Z,-23424.06
2022-11-04T23:07:07.691Z,-23423.41
2022-11-04T23:09:12.750Z,-23423.72
2022-11-04T23:11:36.082Z,-23425.31
2022-11-04T23:13:56.538Z,-23423.72
2022-11-04T23:16:18.500Z,-23421.66
2022-11-04T23:18:38.870Z,-23419.94
2022-11-04T23:20:41.500Z,-23420.25
2022-11-04T23:23:01.781Z,-23419.59
2022-11-04T23:25:07.094Z,-23422.47
2022-11-04T23:27:09.834Z,-23422.63
2022-11-04T23:29:30.175Z,-23425.00
2022-11-04T23:31:34.131Z,-23425.31
2022-11-04T23:33:54.394Z,-23425.47
2022-11-04T23:36:14.682Z,-23425.97
2022-11-04T23:38:17.687Z,-23423.88
2022-11-04T23:40:20.282Z,-23422.78
2022-11-04T23:42:22.828Z,-23427.06
2022-11-04T23:44:43.184Z,-23423.56
2022-11-04T23:47:04.684Z,-23423.72
2022-11-04T23:49:21.159Z,-23424.22
2022-11-04T23:51:41.311Z,-23423.41
2022-11-04T23:54:01.608Z,-23421.81
2022-11-04T23:56:23.208Z,-23423.72
2022-11-04T23:58:43.613Z,-23422.00
